sensor_id;sensor_type;location;lat;lon;timestamp;P1;durP1;ratioP1;P2;durP2;ratioP2
45970;SDS011;31681;48.982;8.394;2023-02-02T00:57:20;7.70;;;2.63;;
45970;SDS011;31681;48.982;8.394;2023-02-02T00:59:53;9.73;;;2.70;;
45970;SDS011;31681;48.982;8.394;2023-02-02T01:07:38;6.77;;;2.60;;
45970;SDS011;31681;48.982;8.394;2023-02-02T01:12:49;8.63;;;2.33;;
45970;SDS011;31681;48.982;8.394;2023-02-02T01:15:14;7.90;;;2.00;;
45970;SDS011;31681;48.982;8.394;2023-02-02T01:17:40;7.93;;;2.23;;
45970;SDS011;31681;48.982;8.394;2023-02-02T01:20:05;10.97;;;2.80;;
45970;SDS011;31681;48.982;8.394;2023-02-02T01:22:31;9.47;;;1.97;;
45970;SDS011;31681;48.982;8.394;2023-02-02T01:24:58;6.50;;;2.43;;
45970;SDS011;31681;48.982;8.394;2023-02-02T01:27:24;6.60;;;2.30;;
45970;SDS011;31681;48.982;8.394;2023-02-02T01:29:49;6.07;;;2.10;;
45970;SDS011;31681;48.982;8.394;2023-02-02T01:32:14;8.53;;;2.40;;
45970;SDS011;31681;48.982;8.394;2023-02-02T01:34:40;8.97;;;2.37;;
45970;SDS011;31681;48.982;8.394;2023-02-02T01:37:06;4.97;;;2.40;;
45970;SDS011;31681;48.982;8.394;2023-02-02T01:42:01;10.57;;;2.67;;
45970;SDS011;31681;48.982;8.394;2023-02-02T01:47:11;14.13;;;3.00;;
45970;SDS011;31681;48.982;8.394;2023-02-02T01:49:38;8.90;;;2.50;;
45970;SDS011;31681;48.982;8.394;2023-02-02T01:52:04;10.40;;;2.57;;
45970;SDS011;31681;48.982;8.394;2023-02-02T01:54:31;6.90;;;2.30;;
45970;SDS011;31681;48.982;8.394;2023-02-02T01:57:04;4.53;;;2.00;;
45970;SDS011;31681;48.982;8.394;2023-02-02T01:59:30;10.43;;;2.20;;
45970;SDS011;31681;48.982;8.394;2023-02-02T02:01:57;9.03;;;2.40;;
45970;SDS011;31681;48.982;8.394;2023-02-02T02:04:23;5.57;;;1.80;;
45970;SDS011;31681;48.982;8.394;2023-02-02T02:06:49;6.87;;;2.23;;
45970;SDS011;31681;48.982;8.394;2023-02-02T02:09:18;8.87;;;2.50;;
45970;SDS011;31681;48.982;8.394;2023-02-02T02:11:43;9.83;;;2.93;;
45970;SDS011;31681;48.982;8.394;2023-02-02T02:14:09;5.97;;;2.23;;
45970;SDS011;31681;48.982;8.394;2023-02-02T02:31:18;10.13;;;2.63;;
45970;SDS011;31681;48.982;8.394;2023-02-02T02:36:18;10.87;;;2.37;;
45970;SDS011;31681;48.982;8.394;2023-02-02T02:41:16;10.30;;;2.30;;
45970;SDS011;31681;48.982;8.394;2023-02-02T02:43:44;8.20;;;2.67;;
45970;SDS011;31681;48.982;8.394;2023-02-02T02:46:17;5.37;;;2.20;;
45970;SDS011;31681;48.982;8.394;2023-02-02T02:48:43;7.80;;;2.10;;
45970;SDS011;31681;48.982;8.394;2023-02-02T02:53:53;9.40;;;2.80;;
45970;SDS011;31681;48.982;8.394;2023-02-02T02:56:22;8.70;;;3.00;;
45970;SDS011;31681;48.982;8.394;2023-02-02T03:01:27;8.80;;;2.97;;
45970;SDS011;31681;48.982;8.394;2023-02-02T03:08:54;9.63;;;2.37;;
45970;SDS011;31681;48.982;8.394;2023-02-02T03:11:21;8.47;;;2.73;;
45970;SDS011;31681;48.982;8.394;2023-02-02T03:13:47;10.00;;;3.07;;
45970;SDS011;31681;48.982;8.394;2023-02-02T03:16:13;10.30;;;2.90;;
45970;SDS011;31681;48.982;8.394;2023-02-02T03:18:39;10.67;;;2.63;;
45970;SDS011;31681;48.982;8.394;2023-02-02T03:21:04;12.73;;;2.77;;
45970;SDS011;31681;48.982;8.394;2023-02-02T03:23:30;7.57;;;2.90;;
45970;SDS011;31681;48.982;8.394;2023-02-02T03:25:55;8.07;;;2.63;;
45970;SDS011;31681;48.982;8.394;2023-02-02T03:28:21;12.87;;;3.10;;
45970;SDS011;31681;48.982;8.394;2023-02-02T03:30:47;7.27;;;2.37;;
45970;SDS011;31681;48.982;8.394;2023-02-02T03:33:13;8.33;;;2.60;;
45970;SDS011;31681;48.982;8.394;2023-02-02T03:35:38;14.83;;;2.93;;
45970;SDS011;31681;48.982;8.394;2023-02-02T03:38:04;10.57;;;3.37;;
45970;SDS011;31681;48.982;8.394;2023-02-02T03:40:29;14.13;;;3.53;;
45970;SDS011;31681;48.982;8.394;2023-02-02T03:42:54;12.47;;;3.17;;
45970;SDS011;31681;48.982;8.394;2023-02-02T03:45:20;9.57;;;3.50;;
45970;SDS011;31681;48.982;8.394;2023-02-02T03:47:45;9.83;;;2.63;;
45970;SDS011;31681;48.982;8.394;2023-02-02T03:50:11;6.77;;;2.53;;
45970;SDS011;31681;48.982;8.394;2023-02-02T03:52:37;10.23;;;3.10;;
45970;SDS011;31681;48.982;8.394;2023-02-02T03:55:03;8.37;;;2.80;;
45970;SDS011;31681;48.982;8.394;2023-02-02T03:57:29;11.93;;;3.37;;
45970;SDS011;31681;48.982;8.394;2023-02-02T03:59:55;12.33;;;2.83;;
45970;SDS011;31681;48.982;8.394;2023-02-02T04:02:20;7.00;;;2.90;;
45970;SDS011;31681;48.982;8.394;2023-02-02T04:04:45;7.50;;;2.63;;
45970;SDS011;31681;48.982;8.394;2023-02-02T04:07:11;16.80;;;3.17;;
45970;SDS011;31681;48.982;8.394;2023-02-02T04:09:36;12.57;;;2.90;;
45970;SDS011;31681;48.982;8.394;2023-02-02T04:12:01;10.10;;;3.03;;
45970;SDS011;31681;48.982;8.394;2023-02-02T04:14:27;11.23;;;2.40;;
45970;SDS011;31681;48.982;8.394;2023-02-02T04:16:52;10.43;;;3.10;;
45970;SDS011;31681;48.982;8.394;2023-02-02T04:19:17;14.57;;;2.63;;
45970;SDS011;31681;48.982;8.394;2023-02-02T04:21:43;6.60;;;2.83;;
45970;SDS011;31681;48.982;8.394;2023-02-02T04:24:12;13.20;;;3.40;;
45970;SDS011;31681;48.982;8.394;2023-02-02T04:26:38;6.37;;;3.07;;
45970;SDS011;31681;48.982;8.394;2023-02-02T04:29:03;13.03;;;2.80;;
45970;SDS011;31681;48.982;8.394;2023-02-02T04:31:29;11.40;;;3.03;;
45970;SDS011;31681;48.982;8.394;2023-02-02T04:33:54;8.03;;;3.00;;
45970;SDS011;31681;48.982;8.394;2023-02-02T04:36:20;9.63;;;3.00;;
45970;SDS011;31681;48.982;8.394;2023-02-02T04:38:47;11.10;;;2.77;;
45970;SDS011;31681;48.982;8.394;2023-02-02T04:41:13;11.03;;;2.33;;
45970;SDS011;31681;48.982;8.394;2023-02-02T04:43:38;10.90;;;2.83;;
45970;SDS011;31681;48.982;8.394;2023-02-02T04:46:04;7.80;;;2.20;;
45970;SDS011;31681;48.982;8.394;2023-02-02T04:48:29;10.67;;;2.13;;
45970;SDS011;31681;48.982;8.394;2023-02-02T04:50:58;18.30;;;3.63;;
45970;SDS011;31681;48.982;8.394;2023-02-02T04:53:24;10.43;;;3.27;;
45970;SDS011;31681;48.982;8.394;2023-02-02T04:55:50;9.70;;;2.63;;
45970;SDS011;31681;48.982;8.394;2023-02-02T04:58:15;6.37;;;2.33;;
45970;SDS011;31681;48.982;8.394;2023-02-02T05:00:40;9.33;;;2.23;;
45970;SDS011;31681;48.982;8.394;2023-02-02T05:03:06;7.77;;;2.13;;
45970;SDS011;31681;48.982;8.394;2023-02-02T05:05:31;7.23;;;2.33;;
45970;SDS011;31681;48.982;8.394;2023-02-02T05:07:56;6.37;;;2.20;;
45970;SDS011;31681;48.982;8.394;2023-02-02T05:10:22;11.07;;;2.40;;
45970;SDS011;31681;48.982;8.394;2023-02-02T05:12:47;10.50;;;2.87;;
45970;SDS011;31681;48.982;8.394;2023-02-02T05:15:13;8.00;;;2.67;;
45970;SDS011;31681;48.982;8.394;2023-02-02T05:17:38;8.83;;;2.70;;
45970;SDS011;31681;48.982;8.394;2023-02-02T05:20:03;12.80;;;2.80;;
45970;SDS011;31681;48.982;8.394;2023-02-02T05:22:29;13.60;;;2.63;;
45970;SDS011;31681;48.982;8.394;2023-02-02T05:24:54;5.60;;;2.50;;
45970;SDS011;31681;48.982;8.394;2023-02-02T05:27:20;10.80;;;2.33;;
45970;SDS011;31681;48.982;8.394;2023-02-02T05:29:45;9.43;;;2.67;;
45970;SDS011;31681;48.982;8.394;2023-02-02T05:32:11;11.03;;;3.07;;
45970;SDS011;31681;48.982;8.394;2023-02-02T05:34:36;8.47;;;2.20;;
45970;SDS011;31681;48.982;8.394;2023-02-02T05:37:01;11.53;;;2.80;;
45970;SDS011;31681;48.982;8.394;2023-02-02T05:39:27;8.70;;;2.30;;
45970;SDS011;31681;48.982;8.394;2023-02-02T05:41:52;7.23;;;2.90;;
45970;SDS011;31681;48.982;8.394;2023-02-02T05:44:17;4.80;;;2.40;;
45970;SDS011;31681;48.982;8.394;2023-02-02T05:46:43;7.43;;;2.57;;
45970;SDS011;31681;48.982;8.394;2023-02-02T05:49:11;11.23;;;3.33;;
45970;SDS011;31681;48.982;8.394;2023-02-02T05:51:38;10.33;;;3.40;;
45970;SDS011;31681;48.982;8.394;2023-02-02T05:54:04;11.57;;;2.67;;
45970;SDS011;31681;48.982;8.394;2023-02-02T05:56:30;6.57;;;2.13;;
45970;SDS011;31681;48.982;8.394;2023-02-02T05:58:55;8.47;;;2.83;;
45970;SDS011;31681;48.982;8.394;2023-02-02T06:01:20;8.10;;;2.60;;
45970;SDS011;31681;48.982;8.394;2023-02-02T06:03:46;12.90;;;2.47;;
45970;SDS011;31681;48.982;8.394;2023-02-02T06:06:11;8.07;;;2.40;;
45970;SDS011;31681;48.982;8.394;2023-02-02T06:08:37;7.60;;;2.80;;
45970;SDS011;31681;48.982;8.394;2023-02-02T06:11:09;6.97;;;2.57;;
45970;SDS011;31681;48.982;8.394;2023-02-02T06:13:38;5.47;;;2.53;;
45970;SDS011;31681;48.982;8.394;2023-02-02T06:16:04;9.43;;;2.83;;
45970;SDS011;31681;48.982;8.394;2023-02-02T06:18:36;5.27;;;2.30;;
45970;SDS011;31681;48.982;8.394;2023-02-02T06:21:03;5.97;;;2.50;;
45970;SDS011;31681;48.982;8.394;2023-02-02T06:23:30;12.03;;;2.70;;
45970;SDS011;31681;48.982;8.394;2023-02-02T06:25:58;10.57;;;2.60;;
45970;SDS011;31681;48.982;8.394;2023-02-02T06:28:24;8.13;;;2.47;;
45970;SDS011;31681;48.982;8.394;2023-02-02T06:30:50;15.73;;;3.20;;
45970;SDS011;31681;48.982;8.394;2023-02-02T06:33:15;10.70;;;3.37;;
45970;SDS011;31681;48.982;8.394;2023-02-02T06:35:41;12.30;;;3.13;;
45970;SDS011;31681;48.982;8.394;2023-02-02T06:38:06;12.50;;;3.03;;
45970;SDS011;31681;48.982;8.394;2023-02-02T06:40:32;9.40;;;3.47;;
45970;SDS011;31681;48.982;8.394;2023-02-02T06:42:58;10.63;;;3.67;;
45970;SDS011;31681;48.982;8.394;2023-02-02T06:45:24;12.47;;;3.90;;
45970;SDS011;31681;48.982;8.394;2023-02-02T06:47:51;9.83;;;3.20;;
45970;SDS011;31681;48.982;8.394;2023-02-02T06:50:16;8.93;;;2.83;;
45970;SDS011;31681;48.982;8.394;2023-02-02T06:52:48;8.77;;;2.80;;
45970;SDS011;31681;48.982;8.394;2023-02-02T06:55:17;10.50;;;2.53;;
45970;SDS011;31681;48.982;8.394;2023-02-02T06:57:42;15.23;;;2.90;;
45970;SDS011;31681;48.982;8.394;2023-02-02T07:00:08;11.57;;;2.90;;
45970;SDS011;31681;48.982;8.394;2023-02-02T07:02:33;6.67;;;3.13;;
45970;SDS011;31681;48.982;8.394;2023-02-02T07:04:59;8.80;;;2.53;;
45970;SDS011;31681;48.982;8.394;2023-02-02T07:07:25;12.27;;;3.20;;
45970;SDS011;31681;48.982;8.394;2023-02-02T07:09:50;11.73;;;3.10;;
45970;SDS011;31681;48.982;8.394;2023-02-02T07:12:16;11.50;;;3.40;;
45970;SDS011;31681;48.982;8.394;2023-02-02T07:14:43;4.70;;;2.53;;
45970;SDS011;31681;48.982;8.394;2023-02-02T07:17:09;5.30;;;2.60;;
45970;SDS011;31681;48.982;8.394;2023-02-02T07:19:34;5.37;;;2.70;;
45970;SDS011;31681;48.982;8.394;2023-02-02T07:22:00;7.43;;;2.87;;
45970;SDS011;31681;48.982;8.394;2023-02-02T07:24:25;9.37;;;3.07;;
45970;SDS011;31681;48.982;8.394;2023-02-02T07:26:54;9.20;;;2.57;;
45970;SDS011;31681;48.982;8.394;2023-02-02T07:29:19;4.90;;;2.73;;
45970;SDS011;31681;48.982;8.394;2023-02-02T07:31:44;9.23;;;2.70;;
45970;SDS011;31681;48.982;8.394;2023-02-02T07:34:10;4.83;;;2.77;;
45970;SDS011;31681;48.982;8.394;2023-02-02T07:36:35;10.47;;;3.23;;
45970;SDS011;31681;48.982;8.394;2023-02-02T07:39:02;8.90;;;2.90;;
45970;SDS011;31681;48.982;8.394;2023-02-02T07:41:29;11.97;;;2.80;;
45970;SDS011;31681;48.982;8.394;2023-02-02T07:43:54;7.43;;;2.60;;
45970;SDS011;31681;48.982;8.394;2023-02-02T07:46:20;12.10;;;3.40;;
45970;SDS011;31681;48.982;8.394;2023-02-02T07:48:45;7.53;;;2.67;;
45970;SDS011;31681;48.982;8.394;2023-02-02T07:51:12;10.83;;;3.40;;
45970;SDS011;31681;48.982;8.394;2023-02-02T07:53:37;11.30;;;2.93;;
45970;SDS011;31681;48.982;8.394;2023-02-02T07:56:09;8.53;;;3.13;;
45970;SDS011;31681;48.982;8.394;2023-02-02T07:58:38;12.20;;;3.70;;
45970;SDS011;31681;48.982;8.394;2023-02-02T08:01:04;14.23;;;3.30;;
45970;SDS011;31681;48.982;8.394;2023-02-02T08:03:29;9.07;;;3.50;;
45970;SDS011;31681;48.982;8.394;2023-02-02T08:05:55;13.63;;;3.30;;
45970;SDS011;31681;48.982;8.394;2023-02-02T08:08:21;11.00;;;2.83;;
45970;SDS011;31681;48.982;8.394;2023-02-02T08:10:50;9.63;;;3.23;;
45970;SDS011;31681;48.982;8.394;2023-02-02T08:13:15;11.03;;;3.60;;
45970;SDS011;31681;48.982;8.394;2023-02-02T08:15:43;16.50;;;3.10;;
45970;SDS011;31681;48.982;8.394;2023-02-02T08:18:08;8.97;;;2.97;;
45970;SDS011;31681;48.982;8.394;2023-02-02T08:20:34;7.37;;;2.80;;
45970;SDS011;31681;48.982;8.394;2023-02-02T08:22:59;7.03;;;2.93;;
45970;SDS011;31681;48.982;8.394;2023-02-02T08:25:25;8.10;;;2.67;;
45970;SDS011;31681;48.982;8.394;2023-02-02T08:27:54;9.90;;;3.50;;
45970;SDS011;31681;48.982;8.394;2023-02-02T08:30:19;10.87;;;3.07;;
45970;SDS011;31681;48.982;8.394;2023-02-02T08:32:45;12.37;;;3.73;;
45970;SDS011;31681;48.982;8.394;2023-02-02T08:35:10;11.63;;;3.43;;
45970;SDS011;31681;48.982;8.394;2023-02-02T08:37:36;14.20;;;3.30;;
45970;SDS011;31681;48.982;8.394;2023-02-02T08:40:01;11.60;;;3.70;;
45970;SDS011;31681;48.982;8.394;2023-02-02T08:42:27;8.83;;;3.53;;
45970;SDS011;31681;48.982;8.394;2023-02-02T08:44:52;11.07;;;3.63;;
45970;SDS011;31681;48.982;8.394;2023-02-02T08:47:17;9.03;;;4.00;;
45970;SDS011;31681;48.982;8.394;2023-02-02T08:49:43;9.53;;;3.83;;
45970;SDS011;31681;48.982;8.394;2023-02-02T08:52:16;12.33;;;3.27;;
45970;SDS011;31681;48.982;8.394;2023-02-02T08:54:41;16.13;;;3.73;;
45970;SDS011;31681;48.982;8.394;2023-02-02T08:57:09;10.93;;;3.47;;
45970;SDS011;31681;48.982;8.394;2023-02-02T08:59:34;12.73;;;3.80;;
45970;SDS011;31681;48.982;8.394;2023-02-02T09:02:00;13.17;;;3.73;;
45970;SDS011;31681;48.982;8.394;2023-02-02T09:04:25;8.63;;;3.73;;
45970;SDS011;31681;48.982;8.394;2023-02-02T09:06:51;12.83;;;3.60;;
45970;SDS011;31681;48.982;8.394;2023-02-02T09:09:16;17.63;;;4.07;;
45970;SDS011;31681;48.982;8.394;2023-02-02T09:11:42;15.37;;;4.53;;
45970;SDS011;31681;48.982;8.394;2023-02-02T09:14:09;15.60;;;4.23;;
45970;SDS011;31681;48.982;8.394;2023-02-02T09:16:34;12.80;;;3.33;;
45970;SDS011;31681;48.982;8.394;2023-02-02T09:19:00;8.50;;;3.00;;
45970;SDS011;31681;48.982;8.394;2023-02-02T09:21:26;9.90;;;3.40;;
45970;SDS011;31681;48.982;8.394;2023-02-02T09:23:54;13.37;;;3.70;;
45970;SDS011;31681;48.982;8.394;2023-02-02T09:26:26;12.23;;;3.13;;
45970;SDS011;31681;48.982;8.394;2023-02-02T09:28:55;10.83;;;4.50;;
45970;SDS011;31681;48.982;8.394;2023-02-02T09:31:21;13.40;;;4.00;;
45970;SDS011;31681;48.982;8.394;2023-02-02T09:33:47;5.27;;;3.17;;
45970;SDS011;31681;48.982;8.394;2023-02-02T09:36:14;9.83;;;3.43;;
45970;SDS011;31681;48.982;8.394;2023-02-02T09:38:40;10.90;;;3.60;;
45970;SDS011;31681;48.982;8.394;2023-02-02T09:44:10;12.23;;;3.20;;
45970;SDS011;31681;48.982;8.394;2023-02-02T09:49:11;10.20;;;4.40;;
45970;SDS011;31681;48.982;8.394;2023-02-02T09:51:38;11.30;;;3.37;;
45970;SDS011;31681;48.982;8.394;2023-02-02T09:54:27;10.73;;;3.30;;
45970;SDS011;31681;48.982;8.394;2023-02-02T09:56:51;11.23;;;3.00;;
45970;SDS011;31681;48.982;8.394;2023-02-02T09:59:23;10.20;;;3.23;;
45970;SDS011;31681;48.982;8.394;2023-02-02T10:01:51;13.80;;;3.23;;
45970;SDS011;31681;48.982;8.394;2023-02-02T10:06:51;6.97;;;3.00;;
45970;SDS011;31681;48.982;8.394;2023-02-02T10:20:00;15.77;;;3.07;;
45970;SDS011;31681;48.982;8.394;2023-02-02T10:22:27;12.83;;;3.63;;
45970;SDS011;31681;48.982;8.394;2023-02-02T10:24:55;15.73;;;3.30;;
45970;SDS011;31681;48.982;8.394;2023-02-02T10:27:24;9.97;;;3.27;;
45970;SDS011;31681;48.982;8.394;2023-02-02T10:29:59;13.53;;;3.70;;
45970;SDS011;31681;48.982;8.394;2023-02-02T10:32:35;19.73;;;3.43;;
45970;SDS011;31681;48.982;8.394;2023-02-02T11:12:49;12.13;;;3.00;;
45970;SDS011;31681;48.982;8.394;2023-02-02T11:15:26;10.77;;;3.07;;
45970;SDS011;31681;48.982;8.394;2023-02-02T11:17:52;7.80;;;2.40;;
45970;SDS011;31681;48.982;8.394;2023-02-02T11:20:34;9.37;;;2.43;;
45970;SDS011;31681;48.982;8.394;2023-02-02T11:23:03;10.53;;;2.73;;
45970;SDS011;31681;48.982;8.394;2023-02-02T11:25:33;11.03;;;2.53;;
45970;SDS011;31681;48.982;8.394;2023-02-02T11:28:00;12.47;;;2.40;;
45970;SDS011;31681;48.982;8.394;2023-02-02T11:32:51;14.17;;;2.90;;
45970;SDS011;31681;48.982;8.394;2023-02-02T11:35:18;8.87;;;2.50;;
45970;SDS011;31681;48.982;8.394;2023-02-02T11:40:38;9.63;;;2.70;;
45970;SDS011;31681;48.982;8.394;2023-02-02T11:43:06;9.57;;;2.90;;
45970;SDS011;31681;48.982;8.394;2023-02-02T11:45:39;6.13;;;2.23;;
45970;SDS011;31681;48.982;8.394;2023-02-02T11:50:31;6.87;;;2.20;;
45970;SDS011;31681;48.982;8.394;2023-02-02T11:52:56;6.40;;;2.77;;
45970;SDS011;31681;48.982;8.394;2023-02-02T11:55:24;8.17;;;2.97;;
45970;SDS011;31681;48.982;8.394;2023-02-02T12:00:41;6.60;;;2.33;;
45970;SDS011;31681;48.982;8.394;2023-02-02T12:03:21;6.50;;;2.20;;
45970;SDS011;31681;48.982;8.394;2023-02-02T12:05:47;8.50;;;2.80;;
45970;SDS011;31681;48.982;8.394;2023-02-02T12:08:14;8.37;;;2.10;;
45970;SDS011;31681;48.982;8.394;2023-02-02T12:10:48;11.03;;;2.70;;
45970;SDS011;31681;48.982;8.394;2023-02-02T12:13:18;8.73;;;2.90;;
45970;SDS011;31681;48.982;8.394;2023-02-02T12:21:19;13.40;;;2.70;;
45970;SDS011;31681;48.982;8.394;2023-02-02T12:26:28;8.43;;;2.77;;
45970;SDS011;31681;48.982;8.394;2023-02-02T12:28:57;10.20;;;3.20;;
45970;SDS011;31681;48.982;8.394;2023-02-02T12:33:57;7.70;;;2.23;;
45970;SDS011;31681;48.982;8.394;2023-02-02T12:41:38;13.17;;;3.00;;
45970;SDS011;31681;48.982;8.394;2023-02-02T12:44:19;12.43;;;3.00;;
45970;SDS011;31681;48.982;8.394;2023-02-02T13:13:37;6.63;;;2.20;;
45970;SDS011;31681;48.982;8.394;2023-02-02T13:16:05;8.67;;;2.90;;
45970;SDS011;31681;48.982;8.394;2023-02-02T13:18:34;7.70;;;2.33;;
45970;SDS011;31681;48.982;8.394;2023-02-02T13:21:01;8.87;;;2.20;;
45970;SDS011;31681;48.982;8.394;2023-02-02T13:23:31;6.57;;;2.17;;
45970;SDS011;31681;48.982;8.394;2023-02-02T13:26:06;10.40;;;2.43;;
45970;SDS011;31681;48.982;8.394;2023-02-02T13:28:35;6.27;;;2.20;;
45970;SDS011;31681;48.982;8.394;2023-02-02T13:31:03;9.60;;;2.10;;
45970;SDS011;31681;48.982;8.394;2023-02-02T13:33:31;8.63;;;1.93;;
45970;SDS011;31681;48.982;8.394;2023-02-02T13:36:04;9.20;;;2.30;;
45970;SDS011;31681;48.982;8.394;2023-02-02T13:38:33;9.90;;;2.33;;
45970;SDS011;31681;48.982;8.394;2023-02-02T13:41:03;8.20;;;2.17;;
45970;SDS011;31681;48.982;8.394;2023-02-02T13:43:37;8.57;;;2.37;;
45970;SDS011;31681;48.982;8.394;2023-02-02T13:46:11;11.13;;;2.80;;
45970;SDS011;31681;48.982;8.394;2023-02-02T13:53:49;7.87;;;2.60;;
45970;SDS011;31681;48.982;8.394;2023-02-02T14:01:35;6.70;;;2.00;;
45970;SDS011;31681;48.982;8.394;2023-02-02T14:04:01;6.30;;;2.10;;
45970;SDS011;31681;48.982;8.394;2023-02-02T14:06:28;8.53;;;2.10;;
45970;SDS011;31681;48.982;8.394;2023-02-02T14:09:14;8.87;;;2.67;;
45970;SDS011;31681;48.982;8.394;2023-02-02T14:11:54;6.77;;;2.43;;
45970;SDS011;31681;48.982;8.394;2023-02-02T14:14:20;5.30;;;1.90;;
45970;SDS011;31681;48.982;8.394;2023-02-02T14:16:56;9.27;;;2.33;;
45970;SDS011;31681;48.982;8.394;2023-02-02T14:27:02;11.03;;;2.67;;
45970;SDS011;31681;48.982;8.394;2023-02-02T14:34:48;7.40;;;2.17;;
45970;SDS011;31681;48.982;8.394;2023-02-02T14:42:20;6.50;;;2.00;;
45970;SDS011;31681;48.982;8.394;2023-02-02T14:50:13;7.17;;;1.90;;
45970;SDS011;31681;48.982;8.394;2023-02-02T14:52:39;8.83;;;2.27;;
45970;SDS011;31681;48.982;8.394;2023-02-02T14:55:14;7.00;;;2.20;;
45970;SDS011;31681;48.982;8.394;2023-02-02T14:57:40;7.97;;;2.13;;
45970;SDS011;31681;48.982;8.394;2023-02-02T15:00:18;5.77;;;2.03;;
45970;SDS011;31681;48.982;8.394;2023-02-02T15:02:47;9.43;;;2.20;;
45970;SDS011;31681;48.982;8.394;2023-02-02T15:08:06;8.80;;;2.27;;
45970;SDS011;31681;48.982;8.394;2023-02-02T15:13:18;6.37;;;2.40;;
45970;SDS011;31681;48.982;8.394;2023-02-02T15:15:45;7.10;;;2.10;;
45970;SDS011;31681;48.982;8.394;2023-02-02T15:18:15;9.63;;;2.30;;
45970;SDS011;31681;48.982;8.394;2023-02-02T15:20:47;5.50;;;2.00;;
45970;SDS011;31681;48.982;8.394;2023-02-02T15:23:33;7.20;;;2.30;;
45970;SDS011;31681;48.982;8.394;2023-02-02T15:26:20;10.47;;;2.80;;
45970;SDS011;31681;48.982;8.394;2023-02-02T15:28:58;8.77;;;2.40;;
45970;SDS011;31681;48.982;8.394;2023-02-02T15:31:39;7.67;;;1.77;;
45970;SDS011;31681;48.982;8.394;2023-02-02T15:36:38;3.73;;;1.80;;
45970;SDS011;31681;48.982;8.394;2023-02-02T15:41:49;5.20;;;1.97;;
45970;SDS011;31681;48.982;8.394;2023-02-02T15:44:36;5.43;;;2.10;;
45970;SDS011;31681;48.982;8.394;2023-02-02T15:47:03;6.70;;;1.80;;
45970;SDS011;31681;48.982;8.394;2023-02-02T15:49:31;8.83;;;2.10;;
45970;SDS011;31681;48.982;8.394;2023-02-02T15:51:57;2.50;;;1.90;;
45970;SDS011;31681;48.982;8.394;2023-02-02T15:56:49;8.83;;;2.30;;
45970;SDS011;31681;48.982;8.394;2023-02-02T15:59:22;6.17;;;1.60;;
45970;SDS011;31681;48.982;8.394;2023-02-02T16:01:50;5.50;;;2.17;;
45970;SDS011;31681;48.982;8.394;2023-02-02T16:04:18;5.97;;;1.60;;
45970;SDS011;31681;48.982;8.394;2023-02-02T16:06:45;2.37;;;1.40;;
45970;SDS011;31681;48.982;8.394;2023-02-02T16:09:44;3.93;;;1.30;;
45970;SDS011;31681;48.982;8.394;2023-02-02T16:12:03;4.73;;;1.53;;
45970;SDS011;31681;48.982;8.394;2023-02-02T16:14:30;5.40;;;1.70;;
45970;SDS011;31681;48.982;8.394;2023-02-02T16:17:08;4.70;;;1.37;;
45970;SDS011;31681;48.982;8.394;2023-02-02T16:19:34;2.23;;;1.50;;
45970;SDS011;31681;48.982;8.394;2023-02-02T16:22:00;6.00;;;1.40;;
45970;SDS011;31681;48.982;8.394;2023-02-02T16:24:28;3.90;;;1.30;;
45970;SDS011;31681;48.982;8.394;2023-02-02T16:26:57;6.63;;;1.67;;
45970;SDS011;31681;48.982;8.394;2023-02-02T16:29:23;3.20;;;1.23;;
45970;SDS011;31681;48.982;8.394;2023-02-02T16:31:49;6.37;;;1.50;;
45970;SDS011;31681;48.982;8.394;2023-02-02T16:34:15;5.40;;;1.67;;
45970;SDS011;31681;48.982;8.394;2023-02-02T16:36:41;2.77;;;1.30;;
45970;SDS011;31681;48.982;8.394;2023-02-02T16:39:13;4.93;;;1.53;;
45970;SDS011;31681;48.982;8.394;2023-02-02T16:41:39;4.50;;;1.43;;
45970;SDS011;31681;48.982;8.394;2023-02-02T16:46:51;2.93;;;1.67;;
45970;SDS011;31681;48.982;8.394;2023-02-02T16:49:17;4.97;;;1.47;;
45970;SDS011;31681;48.982;8.394;2023-02-02T16:51:46;2.37;;;1.40;;
45970;SDS011;31681;48.982;8.394;2023-02-02T16:54:16;2.60;;;1.27;;
45970;SDS011;31681;48.982;8.394;2023-02-02T16:56:50;4.43;;;1.93;;
45970;SDS011;31681;48.982;8.394;2023-02-02T16:59:17;12.53;;;1.53;;
45970;SDS011;31681;48.982;8.394;2023-02-02T17:01:48;8.07;;;1.80;;
45970;SDS011;31681;48.982;8.394;2023-02-02T17:04:56;6.60;;;1.53;;
45970;SDS011;31681;48.982;8.394;2023-02-02T17:07:07;3.03;;;1.30;;
45970;SDS011;31681;48.982;8.394;2023-02-02T17:09:35;7.33;;;1.77;;
45970;SDS011;31681;48.982;8.394;2023-02-02T17:12:03;4.53;;;1.43;;
45970;SDS011;31681;48.982;8.394;2023-02-02T17:14:35;6.30;;;1.33;;
45970;SDS011;31681;48.982;8.394;2023-02-02T17:17:02;5.47;;;1.97;;
45970;SDS011;31681;48.982;8.394;2023-02-02T17:19:28;5.07;;;1.57;;
45970;SDS011;31681;48.982;8.394;2023-02-02T17:21:54;8.50;;;2.17;;
45970;SDS011;31681;48.982;8.394;2023-02-02T17:24:20;3.70;;;1.50;;
45970;SDS011;31681;48.982;8.394;2023-02-02T17:26:45;4.50;;;1.40;;
45970;SDS011;31681;48.982;8.394;2023-02-02T17:29:13;6.03;;;2.40;;
45970;SDS011;31681;48.982;8.394;2023-02-02T17:31:39;3.37;;;2.10;;
45970;SDS011;31681;48.982;8.394;2023-02-02T17:34:13;3.00;;;1.60;;
45970;SDS011;31681;48.982;8.394;2023-02-02T17:36:39;9.03;;;1.70;;
45970;SDS011;31681;48.982;8.394;2023-02-02T17:39:05;5.17;;;1.50;;
45970;SDS011;31681;48.982;8.394;2023-02-02T17:41:30;4.90;;;1.53;;
45970;SDS011;31681;48.982;8.394;2023-02-02T17:43:56;3.87;;;1.33;;
45970;SDS011;31681;48.982;8.394;2023-02-02T17:46:21;2.77;;;1.60;;
45970;SDS011;31681;48.982;8.394;2023-02-02T17:48:47;5.13;;;1.70;;
45970;SDS011;31681;48.982;8.394;2023-02-02T17:51:13;7.03;;;1.40;;
45970;SDS011;31681;48.982;8.394;2023-02-02T17:53:39;9.70;;;2.10;;
45970;SDS011;31681;48.982;8.394;2023-02-02T17:56:04;7.27;;;1.50;;
45970;SDS011;31681;48.982;8.394;2023-02-02T17:58:29;4.77;;;1.20;;
45970;SDS011;31681;48.982;8.394;2023-02-02T18:00:55;4.53;;;1.53;;
45970;SDS011;31681;48.982;8.394;2023-02-02T18:03:30;4.80;;;1.43;;
45970;SDS011;31681;48.982;8.394;2023-02-02T18:05:57;6.60;;;1.67;;
45970;SDS011;31681;48.982;8.394;2023-02-02T18:08:25;2.40;;;1.70;;
45970;SDS011;31681;48.982;8.394;2023-02-02T18:10:51;3.27;;;1.70;;
45970;SDS011;31681;48.982;8.394;2023-02-02T18:13:17;4.43;;;1.30;;
45970;SDS011;31681;48.982;8.394;2023-02-02T18:15:43;5.97;;;1.70;;
45970;SDS011;31681;48.982;8.394;2023-02-02T18:18:09;3.97;;;1.70;;
45970;SDS011;31681;48.982;8.394;2023-02-02T18:20:39;4.83;;;2.10;;
45970;SDS011;31681;48.982;8.394;2023-02-02T18:23:05;7.33;;;1.63;;
45970;SDS011;31681;48.982;8.394;2023-02-02T18:25:30;10.97;;;2.70;;
45970;SDS011;31681;48.982;8.394;2023-02-02T18:27:55;10.33;;;2.10;;
45970;SDS011;31681;48.982;8.394;2023-02-02T18:30:21;7.10;;;1.73;;
45970;SDS011;31681;48.982;8.394;2023-02-02T18:32:48;8.47;;;1.70;;
45970;SDS011;31681;48.982;8.394;2023-02-02T18:35:17;5.73;;;1.70;;
45970;SDS011;31681;48.982;8.394;2023-02-02T18:37:42;5.23;;;1.70;;
45970;SDS011;31681;48.982;8.394;2023-02-02T18:40:08;4.40;;;1.87;;
45970;SDS011;31681;48.982;8.394;2023-02-02T18:42:34;5.30;;;1.43;;
45970;SDS011;31681;48.982;8.394;2023-02-02T18:44:59;4.57;;;1.30;;
45970;SDS011;31681;48.982;8.394;2023-02-02T18:47:25;2.37;;;1.60;;
45970;SDS011;31681;48.982;8.394;2023-02-02T18:49:51;4.30;;;1.80;;
45970;SDS011;31681;48.982;8.394;2023-02-02T18:52:16;3.47;;;1.47;;
45970;SDS011;31681;48.982;8.394;2023-02-02T18:54:43;2.20;;;1.43;;
45970;SDS011;31681;48.982;8.394;2023-02-02T18:57:08;5.37;;;1.70;;
45970;SDS011;31681;48.982;8.394;2023-02-02T18:59:38;5.37;;;1.77;;
45970;SDS011;31681;48.982;8.394;2023-02-02T19:02:03;5.07;;;2.13;;
45970;SDS011;31681;48.982;8.394;2023-02-02T19:04:29;4.83;;;2.10;;